sensor_id;sensor_type;location;lat;lon;timestamp;P1;durP1;ratioP1;P2;durP2;ratioP2
33858;SDS011;20156;47.486;12.074;2023-09-18T00:02:18;5.82;;;5.05;;
33858;SDS011;20156;47.486;12.074;2023-09-18T00:04:43;6.18;;;4.75;;
33858;SDS011;20156;47.486;12.074;2023-09-18T00:07:09;5.80;;;4.80;;
33858;SDS011;20156;47.486;12.074;2023-09-18T00:09:35;6.72;;;4.75;;
33858;SDS011;20156;47.486;12.074;2023-09-18T00:12:01;6.18;;;4.85;;
33858;SDS011;20156;47.486;12.074;2023-09-18T00:14:26;5.13;;;4.30;;
33858;SDS011;20156;47.486;12.074;2023-09-18T00:16:52;5.63;;;4.93;;
33858;SDS011;20156;47.486;12.074;2023-09-18T00:19:18;5.38;;;4.88;;
33858;SDS011;20156;47.486;12.074;2023-09-18T00:21:43;9.43;;;4.88;;
33858;SDS011;20156;47.486;12.074;2023-09-18T00:24:09;7.40;;;5.78;;
33858;SDS011;20156;47.486;12.074;2023-09-18T00:26:34;5.60;;;4.90;;
33858;SDS011;20156;47.486;12.074;2023-09-18T00:28:59;5.95;;;5.03;;
33858;SDS011;20156;47.486;12.074;2023-09-18T00:31:25;7.25;;;5.10;;
33858;SDS011;20156;47.486;12.074;2023-09-18T00:33:50;7.25;;;4.28;;
33858;SDS011;20156;47.486;12.074;2023-09-18T00:36:15;7.00;;;4.90;;
33858;SDS011;20156;47.486;12.074;2023-09-18T00:38:41;4.90;;;4.13;;
33858;SDS011;20156;47.486;12.074;2023-09-18T00:41:06;5.78;;;4.47;;
33858;SDS011;20156;47.486;12.074;2023-09-18T00:43:32;4.43;;;4.03;;
33858;SDS011;20156;47.486;12.074;2023-09-18T00:45:57;4.85;;;4.40;;
33858;SDS011;20156;47.486;12.074;2023-09-18T00:48:23;5.78;;;4.60;;
33858;SDS011;20156;47.486;12.074;2023-09-18T00:50:48;4.63;;;3.92;;
33858;SDS011;20156;47.486;12.074;2023-09-18T00:53:16;4.22;;;3.88;;
33858;SDS011;20156;47.486;12.074;2023-09-18T00:55:44;5.20;;;4.60;;
33858;SDS011;20156;47.486;12.074;2023-09-18T00:58:09;6.47;;;4.95;;
33858;SDS011;20156;47.486;12.074;2023-09-18T01:00:35;6.07;;;4.80;;
33858;SDS011;20156;47.486;12.074;2023-09-18T01:03:01;5.53;;;4.50;;
33858;SDS011;20156;47.486;12.074;2023-09-18T01:05:30;4.28;;;3.88;;
33858;SDS011;20156;47.486;12.074;2023-09-18T01:07:57;6.90;;;4.72;;
33858;SDS011;20156;47.486;12.074;2023-09-18T01:10:23;4.80;;;4.30;;
33858;SDS011;20156;47.486;12.074;2023-09-18T01:12:54;6.00;;;4.43;;
33858;SDS011;20156;47.486;12.074;2023-09-18T01:15:27;5.40;;;4.90;;
33858;SDS011;20156;47.486;12.074;2023-09-18T01:17:57;5.70;;;5.20;;
33858;SDS011;20156;47.486;12.074;2023-09-18T01:20:23;6.53;;;4.97;;
33858;SDS011;20156;47.486;12.074;2023-09-18T01:22:49;6.95;;;4.85;;
33858;SDS011;20156;47.486;12.074;2023-09-18T01:25:15;6.22;;;4.80;;
33858;SDS011;20156;47.486;12.074;2023-09-18T01:27:40;5.82;;;4.70;;
33858;SDS011;20156;47.486;12.074;2023-09-18T01:30:07;5.05;;;4.63;;
33858;SDS011;20156;47.486;12.074;2023-09-18T01:32:32;8.18;;;5.47;;
33858;SDS011;20156;47.486;12.074;2023-09-18T01:35:02;6.85;;;5.20;;
33858;SDS011;20156;47.486;12.074;2023-09-18T01:37:31;5.18;;;4.68;;
33858;SDS011;20156;47.486;12.074;2023-09-18T01:39:57;5.20;;;4.70;;
33858;SDS011;20156;47.486;12.074;2023-09-18T01:42:24;5.80;;;4.57;;
33858;SDS011;20156;47.486;12.074;2023-09-18T01:44:53;4.80;;;4.30;;
33858;SDS011;20156;47.486;12.074;2023-09-18T01:47:20;5.10;;;4.60;;
33858;SDS011;20156;47.486;12.074;2023-09-18T01:49:48;5.45;;;4.47;;
33858;SDS011;20156;47.486;12.074;2023-09-18T01:52:14;5.03;;;4.15;;
33858;SDS011;20156;47.486;12.074;2023-09-18T01:54:39;5.10;;;4.40;;
33858;SDS011;20156;47.486;12.074;2023-09-18T01:57:05;5.35;;;4.85;;
33858;SDS011;20156;47.486;12.074;2023-09-18T01:59:32;9.80;;;5.00;;
33858;SDS011;20156;47.486;12.074;2023-09-18T02:01:58;5.43;;;4.72;;
33858;SDS011;20156;47.486;12.074;2023-09-18T02:04:24;5.32;;;4.82;;
33858;SDS011;20156;47.486;12.074;2023-09-18T02:06:50;6.85;;;4.80;;
33858;SDS011;20156;47.486;12.074;2023-09-18T02:09:17;5.70;;;5.20;;
33858;SDS011;20156;47.486;12.074;2023-09-18T02:11:43;6.35;;;5.20;;
33858;SDS011;20156;47.486;12.074;2023-09-18T02:14:10;6.50;;;5.75;;
33858;SDS011;20156;47.486;12.074;2023-09-18T02:16:37;6.43;;;5.82;;
33858;SDS011;20156;47.486;12.074;2023-09-18T02:19:08;7.30;;;5.55;;
33858;SDS011;20156;47.486;12.074;2023-09-18T02:21:35;6.68;;;5.93;;
33858;SDS011;20156;47.486;12.074;2023-09-18T02:24:01;7.55;;;5.38;;
33858;SDS011;20156;47.486;12.074;2023-09-18T02:26:27;6.25;;;5.55;;
33858;SDS011;20156;47.486;12.074;2023-09-18T02:28:53;6.88;;;6.18;;
33858;SDS011;20156;47.486;12.074;2023-09-18T02:31:19;6.57;;;5.68;;
33858;SDS011;20156;47.486;12.074;2023-09-18T02:33:45;6.47;;;5.55;;
33858;SDS011;20156;47.486;12.074;2023-09-18T02:36:12;5.90;;;5.30;;
33858;SDS011;20156;47.486;12.074;2023-09-18T02:38:37;6.20;;;5.00;;
33858;SDS011;20156;47.486;12.074;2023-09-18T02:41:03;6.07;;;5.18;;
33858;SDS011;20156;47.486;12.074;2023-09-18T02:43:28;8.50;;;6.18;;
33858;SDS011;20156;47.486;12.074;2023-09-18T02:45:54;6.78;;;5.13;;
33858;SDS011;20156;47.486;12.074;2023-09-18T02:48:19;4.88;;;4.45;;
33858;SDS011;20156;47.486;12.074;2023-09-18T02:50:45;5.90;;;5.30;;
33858;SDS011;20156;47.486;12.074;2023-09-18T02:53:17;6.03;;;5.22;;
33858;SDS011;20156;47.486;12.074;2023-09-18T02:55:44;9.90;;;5.72;;
33858;SDS011;20156;47.486;12.074;2023-09-18T02:58:10;5.78;;;5.20;;
33858;SDS011;20156;47.486;12.074;2023-09-18T03:00:40;5.75;;;5.25;;
33858;SDS011;20156;47.486;12.074;2023-09-18T03:03:07;6.80;;;5.38;;
33858;SDS011;20156;47.486;12.074;2023-09-18T03:05:32;7.97;;;5.63;;
33858;SDS011;20156;47.486;12.074;2023-09-18T03:07:58;5.28;;;4.78;;
33858;SDS011;20156;47.486;12.074;2023-09-18T03:10:23;7.25;;;5.07;;
33858;SDS011;20156;47.486;12.074;2023-09-18T03:12:48;6.68;;;5.72;;
33858;SDS011;20156;47.486;12.074;2023-09-18T03:15:14;7.38;;;5.00;;
33858;SDS011;20156;47.486;12.074;2023-09-18T03:17:40;5.20;;;4.70;;
33858;SDS011;20156;47.486;12.074;2023-09-18T03:20:07;5.70;;;5.00;;
33858;SDS011;20156;47.486;12.074;2023-09-18T03:22:33;5.45;;;4.90;;
33858;SDS011;20156;47.486;12.074;2023-09-18T03:24:59;6.25;;;5.18;;
33858;SDS011;20156;47.486;12.074;2023-09-18T03:27:24;7.25;;;5.43;;
33858;SDS011;20156;47.486;12.074;2023-09-18T03:29:53;6.20;;;5.07;;
33858;SDS011;20156;47.486;12.074;2023-09-18T03:32:19;6.20;;;4.90;;
33858;SDS011;20156;47.486;12.074;2023-09-18T03:34:45;5.63;;;4.93;;
33858;SDS011;20156;47.486;12.074;2023-09-18T03:37:10;6.32;;;5.40;;
33858;SDS011;20156;47.486;12.074;2023-09-18T03:39:36;7.50;;;5.20;;
33858;SDS011;20156;47.486;12.074;2023-09-18T03:42:01;4.57;;;4.07;;
33858;SDS011;20156;47.486;12.074;2023-09-18T03:44:27;7.18;;;5.45;;
33858;SDS011;20156;47.486;12.074;2023-09-18T03:46:53;8.43;;;5.22;;
33858;SDS011;20156;47.486;12.074;2023-09-18T03:49:18;6.40;;;5.03;;
33858;SDS011;20156;47.486;12.074;2023-09-18T03:51:43;5.43;;;4.63;;
33858;SDS011;20156;47.486;12.074;2023-09-18T03:54:09;6.57;;;5.38;;
33858;SDS011;20156;47.486;12.074;2023-09-18T03:56:35;7.45;;;5.45;;
33858;SDS011;20156;47.486;12.074;2023-09-18T03:59:00;8.45;;;6.43;;
33858;SDS011;20156;47.486;12.074;2023-09-18T04:01:26;9.07;;;6.70;;
33858;SDS011;20156;47.486;12.074;2023-09-18T04:03:52;6.57;;;5.93;;
33858;SDS011;20156;47.486;12.074;2023-09-18T04:06:20;10.60;;;7.95;;
33858;SDS011;20156;47.486;12.074;2023-09-18T04:08:46;5.82;;;5.22;;
33858;SDS011;20156;47.486;12.074;2023-09-18T04:11:11;7.20;;;6.00;;
33858;SDS011;20156;47.486;12.074;2023-09-18T04:13:37;10.10;;;5.57;;
33858;SDS011;20156;47.486;12.074;2023-09-18T04:16:03;6.50;;;5.25;;
33858;SDS011;20156;47.486;12.074;2023-09-18T04:18:29;5.70;;;4.60;;
33858;SDS011;20156;47.486;12.074;2023-09-18T04:20:54;5.88;;;4.15;;
33858;SDS011;20156;47.486;12.074;2023-09-18T04:23:21;6.60;;;4.47;;
33858;SDS011;20156;47.486;12.074;2023-09-18T04:25:47;7.03;;;4.80;;
33858;SDS011;20156;47.486;12.074;2023-09-18T04:28:14;6.55;;;5.43;;
33858;SDS011;20156;47.486;12.074;2023-09-18T04:30:40;7.43;;;5.57;;
33858;SDS011;20156;47.486;12.074;2023-09-18T04:33:06;6.93;;;4.68;;
33858;SDS011;20156;47.486;12.074;2023-09-18T04:35:31;5.80;;;5.10;;
33858;SDS011;20156;47.486;12.074;2023-09-18T04:37:58;4.90;;;4.47;;
33858;SDS011;20156;47.486;12.074;2023-09-18T04:40:24;9.75;;;4.80;;
33858;SDS011;20156;47.486;12.074;2023-09-18T04:42:49;5.93;;;4.90;;
33858;SDS011;20156;47.486;12.074;2023-09-18T04:45:15;6.43;;;5.00;;
33858;SDS011;20156;47.486;12.074;2023-09-18T04:47:43;5.60;;;4.78;;
33858;SDS011;20156;47.486;12.074;2023-09-18T04:50:09;7.93;;;5.60;;
33858;SDS011;20156;47.486;12.074;2023-09-18T04:52:38;8.18;;;5.47;;
33858;SDS011;20156;47.486;12.074;2023-09-18T04:55:05;8.43;;;5.95;;
33858;SDS011;20156;47.486;12.074;2023-09-18T04:57:31;13.63;;;5.97;;
33858;SDS011;20156;47.486;12.074;2023-09-18T04:59:56;8.13;;;5.90;;
33858;SDS011;20156;47.486;12.074;2023-09-18T05:02:22;8.38;;;6.05;;
33858;SDS011;20156;47.486;12.074;2023-09-18T05:04:47;8.40;;;5.88;;
33858;SDS011;20156;47.486;12.074;2023-09-18T05:07:13;8.05;;;6.53;;
33858;SDS011;20156;47.486;12.074;2023-09-18T05:09:38;6.90;;;6.18;;
33858;SDS011;20156;47.486;12.074;2023-09-18T05:12:05;7.72;;;5.85;;
33858;SDS011;20156;47.486;12.074;2023-09-18T05:14:33;7.63;;;5.30;;
33858;SDS011;20156;47.486;12.074;2023-09-18T05:16:59;8.35;;;5.95;;
33858;SDS011;20156;47.486;12.074;2023-09-18T05:19:25;8.40;;;5.35;;
33858;SDS011;20156;47.486;12.074;2023-09-18T05:21:50;6.75;;;5.35;;
33858;SDS011;20156;47.486;12.074;2023-09-18T05:24:15;7.03;;;5.15;;
33858;SDS011;20156;47.486;12.074;2023-09-18T05:26:41;7.03;;;5.53;;
33858;SDS011;20156;47.486;12.074;2023-09-18T05:29:06;9.30;;;5.78;;
33858;SDS011;20156;47.486;12.074;2023-09-18T05:31:32;11.65;;;6.10;;
33858;SDS011;20156;47.486;12.074;2023-09-18T05:33:57;6.95;;;5.53;;
33858;SDS011;20156;47.486;12.074;2023-09-18T05:36:23;7.32;;;5.20;;
33858;SDS011;20156;47.486;12.074;2023-09-18T05:38:49;8.68;;;5.93;;
33858;SDS011;20156;47.486;12.074;2023-09-18T05:41:14;7.53;;;5.82;;
33858;SDS011;20156;47.486;12.074;2023-09-18T05:43:40;6.82;;;4.90;;
33858;SDS011;20156;47.486;12.074;2023-09-18T05:46:05;9.57;;;5.40;;
33858;SDS011;20156;47.486;12.074;2023-09-18T05:48:31;8.20;;;4.93;;
33858;SDS011;20156;47.486;12.074;2023-09-18T05:50:56;8.85;;;5.40;;
33858;SDS011;20156;47.486;12.074;2023-09-18T05:53:22;6.95;;;4.57;;
33858;SDS011;20156;47.486;12.074;2023-09-18T05:55:47;7.00;;;4.70;;
33858;SDS011;20156;47.486;12.074;2023-09-18T05:58:13;7.28;;;5.60;;
33858;SDS011;20156;47.486;12.074;2023-09-18T06:00:39;7.18;;;4.50;;
33858;SDS011;20156;47.486;12.074;2023-09-18T06:03:05;5.68;;;5.10;;
33858;SDS011;20156;47.486;12.074;2023-09-18T06:05:31;8.88;;;4.82;;
33858;SDS011;20156;47.486;12.074;2023-09-18T06:07:58;5.63;;;4.68;;
33858;SDS011;20156;47.486;12.074;2023-09-18T06:10:24;7.90;;;4.30;;
33858;SDS011;20156;47.486;12.074;2023-09-18T06:12:50;8.80;;;5.43;;
33858;SDS011;20156;47.486;12.074;2023-09-18T06:15:15;7.57;;;4.60;;
33858;SDS011;20156;47.486;12.074;2023-09-18T06:17:44;7.25;;;4.88;;
33858;SDS011;20156;47.486;12.074;2023-09-18T06:20:10;7.80;;;5.05;;
33858;SDS011;20156;47.486;12.074;2023-09-18T06:22:38;6.10;;;4.85;;
33858;SDS011;20156;47.486;12.074;2023-09-18T06:25:05;7.28;;;5.20;;
33858;SDS011;20156;47.486;12.074;2023-09-18T06:27:31;8.15;;;5.47;;
33858;SDS011;20156;47.486;12.074;2023-09-18T06:29:59;12.25;;;5.18;;
33858;SDS011;20156;47.486;12.074;2023-09-18T06:32:25;8.07;;;4.90;;
33858;SDS011;20156;47.486;12.074;2023-09-18T06:34:50;6.78;;;4.70;;
33858;SDS011;20156;47.486;12.074;2023-09-18T06:37:15;8.60;;;5.25;;
33858;SDS011;20156;47.486;12.074;2023-09-18T06:39:41;7.00;;;5.30;;
33858;SDS011;20156;47.486;12.074;2023-09-18T06:42:06;10.85;;;5.70;;
33858;SDS011;20156;47.486;12.074;2023-09-18T06:44:32;8.20;;;5.57;;
33858;SDS011;20156;47.486;12.074;2023-09-18T06:46:57;8.20;;;5.75;;
33858;SDS011;20156;47.486;12.074;2023-09-18T06:49:23;6.60;;;5.90;;
33858;SDS011;20156;47.486;12.074;2023-09-18T06:51:49;12.20;;;7.20;;
33858;SDS011;20156;47.486;12.074;2023-09-18T06:54:14;8.13;;;6.68;;
33858;SDS011;20156;47.486;12.074;2023-09-18T06:56:40;7.57;;;6.80;;
33858;SDS011;20156;47.486;12.074;2023-09-18T06:59:06;8.85;;;6.22;;
33858;SDS011;20156;47.486;12.074;2023-09-18T07:01:32;9.13;;;7.15;;
33858;SDS011;20156;47.486;12.074;2023-09-18T07:03:58;10.38;;;6.35;;
33858;SDS011;20156;47.486;12.074;2023-09-18T07:06:24;8.20;;;5.97;;
33858;SDS011;20156;47.486;12.074;2023-09-18T07:08:50;7.32;;;5.50;;
33858;SDS011;20156;47.486;12.074;2023-09-18T07:11:16;8.13;;;5.53;;
33858;SDS011;20156;47.486;12.074;2023-09-18T07:13:42;7.13;;;5.97;;
33858;SDS011;20156;47.486;12.074;2023-09-18T07:16:08;7.03;;;5.20;;
33858;SDS011;20156;47.486;12.074;2023-09-18T07:18:33;12.07;;;5.85;;
33858;SDS011;20156;47.486;12.074;2023-09-18T07:20:59;9.00;;;5.65;;
33858;SDS011;20156;47.486;12.074;2023-09-18T07:23:24;7.72;;;5.97;;
33858;SDS011;20156;47.486;12.074;2023-09-18T07:25:50;9.02;;;5.88;;
33858;SDS011;20156;47.486;12.074;2023-09-18T07:28:15;6.63;;;5.53;;
33858;SDS011;20156;47.486;12.074;2023-09-18T07:30:46;8.95;;;5.65;;
33858;SDS011;20156;47.486;12.074;2023-09-18T07:33:12;6.95;;;5.13;;
33858;SDS011;20156;47.486;12.074;2023-09-18T07:35:46;6.30;;;5.30;;
33858;SDS011;20156;47.486;12.074;2023-09-18T07:38:16;9.10;;;5.60;;
33858;SDS011;20156;47.486;12.074;2023-09-18T07:40:44;6.25;;;5.65;;
33858;SDS011;20156;47.486;12.074;2023-09-18T07:43:10;8.95;;;6.07;;
33858;SDS011;20156;47.486;12.074;2023-09-18T07:45:37;8.52;;;5.50;;
33858;SDS011;20156;47.486;12.074;2023-09-18T07:48:05;7.10;;;4.75;;
33858;SDS011;20156;47.486;12.074;2023-09-18T07:50:31;5.88;;;4.85;;
33858;SDS011;20156;47.486;12.074;2023-09-18T07:52:58;8.48;;;4.75;;
33858;SDS011;20156;47.486;12.074;2023-09-18T07:55:24;9.60;;;5.43;;
33858;SDS011;20156;47.486;12.074;2023-09-18T07:57:49;10.40;;;5.82;;
33858;SDS011;20156;47.486;12.074;2023-09-18T08:00:16;8.10;;;6.40;;
33858;SDS011;20156;47.486;12.074;2023-09-18T08:02:43;10.52;;;5.65;;
33858;SDS011;20156;47.486;12.074;2023-09-18T08:05:09;7.18;;;5.65;;
33858;SDS011;20156;47.486;12.074;2023-09-18T08:07:37;8.18;;;6.50;;
33858;SDS011;20156;47.486;12.074;2023-09-18T08:10:03;7.45;;;5.65;;
33858;SDS011;20156;47.486;12.074;2023-09-18T08:12:33;11.70;;;5.28;;
33858;SDS011;20156;47.486;12.074;2023-09-18T08:14:59;8.55;;;4.82;;
33858;SDS011;20156;47.486;12.074;2023-09-18T08:17:25;7.57;;;4.13;;
33858;SDS011;20156;47.486;12.074;2023-09-18T08:19:51;7.15;;;4.65;;
33858;SDS011;20156;47.486;12.074;2023-09-18T08:22:18;7.88;;;5.18;;
33858;SDS011;20156;47.486;12.074;2023-09-18T08:24:44;11.20;;;5.60;;
33858;SDS011;20156;47.486;12.074;2023-09-18T08:27:10;7.70;;;4.75;;
33858;SDS011;20156;47.486;12.074;2023-09-18T08:29:37;6.43;;;3.90;;
33858;SDS011;20156;47.486;12.074;2023-09-18T08:32:02;5.38;;;3.90;;
33858;SDS011;20156;47.486;12.074;2023-09-18T08:34:28;7.53;;;4.85;;
33858;SDS011;20156;47.486;12.074;2023-09-18T08:36:53;6.03;;;4.65;;
33858;SDS011;20156;47.486;12.074;2023-09-18T08:39:19;7.53;;;4.25;;
33858;SDS011;20156;47.486;12.074;2023-09-18T08:41:45;6.25;;;4.30;;
33858;SDS011;20156;47.486;12.074;2023-09-18T08:44:15;6.68;;;4.00;;
33858;SDS011;20156;47.486;12.074;2023-09-18T08:46:43;9.35;;;4.10;;
33858;SDS011;20156;47.486;12.074;2023-09-18T08:49:09;7.43;;;3.97;;
33858;SDS011;20156;47.486;12.074;2023-09-18T08:51:37;5.10;;;3.70;;
33858;SDS011;20156;47.486;12.074;2023-09-18T08:54:03;4.80;;;3.40;;
33858;SDS011;20156;47.486;12.074;2023-09-18T08:56:30;5.65;;;3.28;;
33858;SDS011;20156;47.486;12.074;2023-09-18T08:58:57;4.78;;;3.28;;
33858;SDS011;20156;47.486;12.074;2023-09-18T09:01:24;5.85;;;3.78;;
33858;SDS011;20156;47.486;12.074;2023-09-18T09:03:50;9.45;;;4.03;;
33858;SDS011;20156;47.486;12.074;2023-09-18T09:06:16;7.05;;;3.55;;
33858;SDS011;20156;47.486;12.074;2023-09-18T09:08:42;8.13;;;3.47;;
33858;SDS011;20156;47.486;12.074;2023-09-18T09:11:07;5.68;;;4.07;;
33858;SDS011;20156;47.486;12.074;2023-09-18T09:13:33;7.45;;;3.30;;
33858;SDS011;20156;47.486;12.074;2023-09-18T09:15:59;6.45;;;3.83;;
33858;SDS011;20156;47.486;12.074;2023-09-18T09:18:27;6.38;;;3.83;;
33858;SDS011;20156;47.486;12.074;2023-09-18T09:23:28;6.72;;;3.63;;
33858;SDS011;20156;47.486;12.074;2023-09-18T09:26:14;4.70;;;3.72;;
33858;SDS011;20156;47.486;12.074;2023-09-18T09:28:42;3.45;;;3.15;;
33858;SDS011;20156;47.486;12.074;2023-09-18T09:31:08;6.70;;;3.67;;
33858;SDS011;20156;47.486;12.074;2023-09-18T09:33:40;8.38;;;3.67;;
33858;SDS011;20156;47.486;12.074;2023-09-18T09:36:18;5.50;;;3.83;;
33858;SDS011;20156;47.486;12.074;2023-09-18T09:38:44;4.07;;;3.20;;
33858;SDS011;20156;47.486;12.074;2023-09-18T09:41:12;6.13;;;3.55;;
33858;SDS011;20156;47.486;12.074;2023-09-18T09:43:41;7.18;;;4.00;;
33858;SDS011;20156;47.486;12.074;2023-09-18T09:46:08;5.15;;;3.45;;
33858;SDS011;20156;47.486;12.074;2023-09-18T09:48:57;6.38;;;3.75;;
33858;SDS011;20156;47.486;12.074;2023-09-18T09:51:31;6.38;;;3.78;;
33858;SDS011;20156;47.486;12.074;2023-09-18T09:53:57;5.80;;;3.20;;
33858;SDS011;20156;47.486;12.074;2023-09-18T09:56:41;6.90;;;3.65;;
33858;SDS011;20156;47.486;12.074;2023-09-18T09:59:08;8.00;;;3.72;;
33858;SDS011;20156;47.486;12.074;2023-09-18T10:01:37;6.38;;;3.70;;
33858;SDS011;20156;47.486;12.074;2023-09-18T10:04:04;6.93;;;3.85;;
33858;SDS011;20156;47.486;12.074;2023-09-18T10:06:33;4.88;;;3.33;;
33858;SDS011;20156;47.486;12.074;2023-09-18T10:09:00;7.05;;;3.22;;
33858;SDS011;20156;47.486;12.074;2023-09-18T10:11:31;7.78;;;3.60;;
33858;SDS011;20156;47.486;12.074;2023-09-18T10:14:08;8.70;;;3.97;;
33858;SDS011;20156;47.486;12.074;2023-09-18T10:16:39;11.38;;;4.53;;
33858;SDS011;20156;47.486;12.074;2023-09-18T10:24:39;7.32;;;3.75;;
33858;SDS011;20156;47.486;12.074;2023-09-18T10:27:06;5.25;;;4.05;;
33858;SDS011;20156;47.486;12.074;2023-09-18T10:29:34;5.82;;;4.07;;
33858;SDS011;20156;47.486;12.074;2023-09-18T10:32:05;6.45;;;3.97;;
33858;SDS011;20156;47.486;12.074;2023-09-18T10:34:32;9.50;;;4.55;;
33858;SDS011;20156;47.486;12.074;2023-09-18T10:36:59;9.70;;;4.22;;
33858;SDS011;20156;47.486;12.074;2023-09-18T10:39:26;10.30;;;4.25;;
33858;SDS011;20156;47.486;12.074;2023-09-18T10:41:54;6.22;;;4.07;;
33858;SDS011;20156;47.486;12.074;2023-09-18T10:44:26;7.38;;;3.60;;
33858;SDS011;20156;47.486;12.074;2023-09-18T10:46:53;9.73;;;4.10;;
33858;SDS011;20156;47.486;12.074;2023-09-18T10:49:20;14.35;;;4.57;;
33858;SDS011;20156;47.486;12.074;2023-09-18T10:51:47;12.32;;;4.88;;
33858;SDS011;20156;47.486;12.074;2023-09-18T10:54:20;10.50;;;4.72;;
33858;SDS011;20156;47.486;12.074;2023-09-18T10:56:48;13.13;;;5.30;;
33858;SDS011;20156;47.486;12.074;2023-09-18T10:59:14;9.93;;;5.18;;
33858;SDS011;20156;47.486;12.074;2023-09-18T11:01:41;12.40;;;5.20;;
33858;SDS011;20156;47.486;12.074;2023-09-18T11:04:07;11.05;;;5.25;;
33858;SDS011;20156;47.486;12.074;2023-09-18T11:09:28;8.23;;;4.80;;
33858;SDS011;20156;47.486;12.074;2023-09-18T11:14:22;14.57;;;5.13;;
33858;SDS011;20156;47.486;12.074;2023-09-18T11:17:06;13.38;;;4.88;;
33858;SDS011;20156;47.486;12.074;2023-09-18T11:19:55;8.85;;;4.32;;
33858;SDS011;20156;47.486;12.074;2023-09-18T11:22:27;11.20;;;4.60;;
33858;SDS011;20156;47.486;12.074;2023-09-18T11:24:52;15.45;;;4.38;;
33858;SDS011;20156;47.486;12.074;2023-09-18T11:27:23;12.85;;;4.47;;
33858;SDS011;20156;47.486;12.074;2023-09-18T11:29:51;11.50;;;4.70;;
33858;SDS011;20156;47.486;12.074;2023-09-18T11:32:36;10.52;;;4.20;;
33858;SDS011;20156;47.486;12.074;2023-09-18T11:35:06;11.35;;;4.55;;
33858;SDS011;20156;47.486;12.074;2023-09-18T11:37:33;14.20;;;4.60;;
33858;SDS011;20156;47.486;12.074;2023-09-18T11:39:59;11.23;;;4.28;;
33858;SDS011;20156;47.486;12.074;2023-09-18T11:42:25;10.15;;;4.35;;
33858;SDS011;20156;47.486;12.074;2023-09-18T11:44:52;7.68;;;3.80;;
33858;SDS011;20156;47.486;12.074;2023-09-18T11:47:19;11.13;;;4.45;;
33858;SDS011;20156;47.486;12.074;2023-09-18T11:49:50;6.28;;;3.90;;
33858;SDS011;20156;47.486;12.074;2023-09-18T11:52:25;8.18;;;4.00;;
33858;SDS011;20156;47.486;12.074;2023-09-18T11:54:52;9.38;;;3.72;;
33858;SDS011;20156;47.486;12.074;2023-09-18T11:57:20;10.88;;;4.20;;
33858;SDS011;20156;47.486;12.074;2023-09-18T11:59:45;11.50;;;4.05;;
33858;SDS011;20156;47.486;12.074;2023-09-18T12:02:32;12.23;;;4.45;;
33858;SDS011;20156;47.486;12.074;2023-09-18T12:05:11;11.93;;;4.40;;
33858;SDS011;20156;47.486;12.074;2023-09-18T12:07:40;12.23;;;3.97;;
33858;SDS011;20156;47.486;12.074;2023-09-18T12:10:14;9.02;;;4.50;;
33858;SDS011;20156;47.486;12.074;2023-09-18T12:12:42;7.57;;;3.90;;
33858;SDS011;20156;47.486;12.074;2023-09-18T12:15:11;11.10;;;4.30;;
33858;SDS011;20156;47.486;12.074;2023-09-18T12:17:38;11.52;;;3.85;;
33858;SDS011;20156;47.486;12.074;2023-09-18T12:20:03;7.85;;;4.13;;
33858;SDS011;20156;47.486;12.074;2023-09-18T12:22:30;8.73;;;4.05;;
33858;SDS011;20156;47.486;12.074;2023-09-18T12:25:12;8.52;;;3.50;;
33858;SDS011;20156;47.486;12.074;2023-09-18T12:27:43;8.35;;;3.83;;
33858;SDS011;20156;47.486;12.074;2023-09-18T12:30:09;6.32;;;3.22;;
33858;SDS011;20156;47.486;12.074;2023-09-18T12:32:40;7.10;;;2.80;;
33858;SDS011;20156;47.486;12.074;2023-09-18T12:35:05;9.32;;;3.40;;
33858;SDS011;20156;47.486;12.074;2023-09-18T12:37:35;9.70;;;3.40;;
33858;SDS011;20156;47.486;12.074;2023-09-18T12:40:04;11.07;;;3.30;;
33858;SDS011;20156;47.486;12.074;2023-09-18T12:42:39;10.55;;;3.63;;
33858;SDS011;20156;47.486;12.074;2023-09-18T12:45:09;13.13;;;4.22;;
33858;SDS011;20156;47.486;12.074;2023-09-18T12:47:35;9.25;;;3.50;;
33858;SDS011;20156;47.486;12.074;2023-09-18T12:50:04;8.07;;;3.67;;
33858;SDS011;20156;47.486;12.074;2023-09-18T12:52:32;7.55;;;3.55;;
33858;SDS011;20156;47.486;12.074;2023-09-18T12:54:58;8.43;;;3.63;;
33858;SDS011;20156;47.486;12.074;2023-09-18T12:57:25;11.52;;;3.58;;
33858;SDS011;20156;47.486;12.074;2023-09-18T12:59:50;9.55;;;3.75;;
33858;SDS011;20156;47.486;12.074;2023-09-18T13:02:18;10.63;;;4.28;;
33858;SDS011;20156;47.486;12.074;2023-09-18T13:04:53;9.63;;;3.92;;
33858;SDS011;20156;47.486;12.074;2023-09-18T13:07:19;15.32;;;4.13;;
33858;SDS011;20156;47.486;12.074;2023-09-18T13:10:02;12.05;;;4.05;;
33858;SDS011;20156;47.486;12.074;2023-09-18T13:12:46;8.10;;;2.15;;
33858;SDS011;20156;47.486;12.074;2023-09-18T13:15:28;8.38;;;2.47;;
33858;SDS011;20156;47.486;12.074;2023-09-18T13:17:55;5.43;;;1.85;;
33858;SDS011;20156;47.486;12.074;2023-09-18T13:20:30;4.35;;;1.55;;
33858;SDS011;20156;47.486;12.074;2023-09-18T13:22:57;4.38;;;1.80;;
33858;SDS011;20156;47.486;12.074;2023-09-18T13:25:29;3.83;;;1.80;;
33858;SDS011;20156;47.486;12.074;2023-09-18T13:27:57;3.47;;;1.60;;
33858;SDS011;20156;47.486;12.074;2023-09-18T13:30:22;5.32;;;1.40;;
33858;SDS011;20156;47.486;12.074;2023-09-18T13:32:49;1.25;;;0.82;;
33858;SDS011;20156;47.486;12.074;2023-09-18T13:35:18;1.20;;;0.47;;
33858;SDS011;20156;47.486;12.074;2023-09-18T13:37:43;1.23;;;0.68;;
33858;SDS011;20156;47.486;12.074;2023-09-18T13:40:10;0.57;;;0.57;;
33858;SDS011;20156;47.486;12.074;2023-09-18T13:42:36;1.23;;;0.52;;
33858;SDS011;20156;47.486;12.074;2023-09-18T13:45:02;1.52;;;0.70;;
33858;SDS011;20156;47.486;12.074;2023-09-18T13:47:29;0.45;;;0.45;;
33858;SDS011;20156;47.486;12.074;2023-09-18T13:49:55;0.88;;;0.30;;
33858;SDS011;20156;47.486;12.074;2023-09-18T13:52:28;1.60;;;0.40;;
33858;SDS011;20156;47.486;12.074;2023-09-18T13:54:55;0.95;;;0.38;;
33858;SDS011;20156;47.486;12.074;2023-09-18T13:57:20;0.70;;;0.30;;
33858;SDS011;20156;47.486;12.074;2023-09-18T13:59:47;2.80;;;0.90;;
33858;SDS011;20156;47.486;12.074;2023-09-18T14:02:14;1.10;;;0.45;;
33858;SDS011;20156;47.486;12.074;2023-09-18T14:04:41;0.73;;;0.55;;
33858;SDS011;20156;47.486;12.074;2023-09-18T14:07:07;2.35;;;0.40;;
33858;SDS011;20156;47.486;12.074;2023-09-18T14:09:33;2.50;;;0.60;;
33858;SDS011;20156;47.486;12.074;2023-09-18T14:11:59;0.80;;;0.40;;
33858;SDS011;20156;47.486;12.074;2023-09-18T14:14:25;0.52;;;0.38;;
33858;SDS011;20156;47.486;12.074;2023-09-18T14:16:51;0.52;;;0.50;;
33858;SDS011;20156;47.486;12.074;2023-09-18T14:19:17;2.42;;;0.40;;
33858;SDS011;20156;47.486;12.074;2023-09-18T14:21:43;0.75;;;0.57;;
33858;SDS011;20156;47.486;12.074;2023-09-18T14:24:10;0.90;;;0.52;;
33858;SDS011;20156;47.486;12.074;2023-09-18T14:26:36;1.25;;;0.50;;
33858;SDS011;20156;47.486;12.074;2023-09-18T14:29:08;0.73;;;0.57;;
33858;SDS011;20156;47.486;12.074;2023-09-18T14:31:36;1.23;;;0.70;;
33858;SDS011;20156;47.486;12.074;2023-09-18T14:34:04;0.73;;;0.50;;
33858;SDS011;20156;47.486;12.074;2023-09-18T14:36:34;3.22;;;0.75;;
33858;SDS011;20156;47.486;12.074;2023-09-18T14:39:01;1.15;;;0.52;;
33858;SDS011;20156;47.486;12.074;2023-09-18T14:41:28;1.20;;;0.75;;
33858;SDS011;20156;47.486;12.074;2023-09-18T14:43:55;0.52;;;0.50;;
33858;SDS011;20156;47.486;12.074;2023-09-18T14:46:24;2.35;;;0.57;;
33858;SDS011;20156;47.486;12.074;2023-09-18T14:48:50;0.85;;;0.80;;